Terminal Aerodrome Forecast
Issued by NWS

Home | Current Version | Previous Version | Text Only | Print | Product List | Glossary On
Versions: 1 2 3 4 5 6 7 8 9 10 11 12 13 14 15 16 17 18
000
FTUS41 KBTV 290533
TAFMSS
TAF
KMSS 290533Z 2906/3006 27011KT P6SM SCT040 BKN060
     FM291200 30010G17KT P6SM SCT045
     FM291900 29007KT P6SM SCT060
     FM300000 30005KT P6SM BKN040=

USA.gov is the U.S. government's official web portal to all federal, state and local government web resources and services.